sensor_id;sensor_type;location;lat;lon;timestamp;P1;durP1;ratioP1;P2;durP2;ratioP2
2710;SDS011;20721;47.402;8.550;2023-02-23T00:00:27;15.10;;;14.95;;
2710;SDS011;20721;47.402;8.550;2023-02-23T00:01:23;13.52;;;13.47;;
2710;SDS011;20721;47.402;8.550;2023-02-23T00:02:16;13.77;;;13.62;;
2710;SDS011;20721;47.402;8.550;2023-02-23T00:03:16;14.69;;;14.53;;
2710;SDS011;20721;47.402;8.550;2023-02-23T00:04:16;14.35;;;14.23;;
2710;SDS011;20721;47.402;8.550;2023-02-23T00:05:17;13.45;;;13.31;;
2710;SDS011;20721;47.402;8.550;2023-02-23T00:06:18;12.94;;;12.77;;
2710;SDS011;20721;47.402;8.550;2023-02-23T00:07:16;13.49;;;13.39;;
2710;SDS011;20721;47.402;8.550;2023-02-23T00:09:21;13.27;;;13.09;;
2710;SDS011;20721;47.402;8.550;2023-02-23T00:10:21;13.04;;;12.84;;
2710;SDS011;20721;47.402;8.550;2023-02-23T00:11:17;12.60;;;12.48;;
2710;SDS011;20721;47.402;8.550;2023-02-23T00:12:17;13.25;;;13.03;;
2710;SDS011;20721;47.402;8.550;2023-02-23T00:13:16;12.90;;;12.69;;
2710;SDS011;20721;47.402;8.550;2023-02-23T00:14:17;12.72;;;12.48;;
2710;SDS011;20721;47.402;8.550;2023-02-23T00:16:19;12.16;;;12.14;;
2710;SDS011;20721;47.402;8.550;2023-02-23T00:17:23;11.81;;;11.81;;
2710;SDS011;20721;47.402;8.550;2023-02-23T00:18:16;12.62;;;12.62;;
2710;SDS011;20721;47.402;8.550;2023-02-23T00:19:17;11.67;;;11.64;;
2710;SDS011;20721;47.402;8.550;2023-02-23T00:20:20;11.26;;;11.15;;
2710;SDS011;20721;47.402;8.550;2023-02-23T00:21:17;12.15;;;12.05;;
2710;SDS011;20721;47.402;8.550;2023-02-23T00:22:16;12.01;;;11.88;;
2710;SDS011;20721;47.402;8.550;2023-02-23T00:23:16;11.16;;;11.13;;
2710;SDS011;20721;47.402;8.550;2023-02-23T00:24:18;11.31;;;11.23;;
2710;SDS011;20721;47.402;8.550;2023-02-23T00:25:19;11.91;;;11.75;;
2710;SDS011;20721;47.402;8.550;2023-02-23T00:26:17;11.76;;;11.62;;
2710;SDS011;20721;47.402;8.550;2023-02-23T00:27:16;11.62;;;11.54;;
2710;SDS011;20721;47.402;8.550;2023-02-23T00:28:16;12.54;;;12.46;;
2710;SDS011;20721;47.402;8.550;2023-02-23T00:29:19;11.09;;;11.00;;
2710;SDS011;20721;47.402;8.550;2023-02-23T00:30:17;11.00;;;10.91;;
2710;SDS011;20721;47.402;8.550;2023-02-23T00:31:16;12.03;;;11.92;;
2710;SDS011;20721;47.402;8.550;2023-02-23T00:32:16;12.17;;;11.97;;
2710;SDS011;20721;47.402;8.550;2023-02-23T00:33:16;10.87;;;10.80;;
2710;SDS011;20721;47.402;8.550;2023-02-23T00:34:17;11.21;;;11.06;;
2710;SDS011;20721;47.402;8.550;2023-02-23T00:35:26;10.86;;;10.75;;
2710;SDS011;20721;47.402;8.550;2023-02-23T00:36:20;10.38;;;10.22;;
2710;SDS011;20721;47.402;8.550;2023-02-23T00:37:17;10.68;;;10.63;;
2710;SDS011;20721;47.402;8.550;2023-02-23T00:38:16;10.83;;;10.79;;
2710;SDS011;20721;47.402;8.550;2023-02-23T00:39:26;10.69;;;10.66;;
2710;SDS011;20721;47.402;8.550;2023-02-23T00:40:23;10.74;;;10.66;;
2710;SDS011;20721;47.402;8.550;2023-02-23T00:42:16;11.25;;;11.04;;
2710;SDS011;20721;47.402;8.550;2023-02-23T00:43:16;10.74;;;10.49;;
2710;SDS011;20721;47.402;8.550;2023-02-23T00:44:16;10.17;;;10.15;;
2710;SDS011;20721;47.402;8.550;2023-02-23T00:45:21;10.26;;;10.22;;
2710;SDS011;20721;47.402;8.550;2023-02-23T00:46:17;10.75;;;10.71;;
2710;SDS011;20721;47.402;8.550;2023-02-23T00:47:16;9.91;;;9.79;;
2710;SDS011;20721;47.402;8.550;2023-02-23T00:48:19;10.37;;;10.15;;
2710;SDS011;20721;47.402;8.550;2023-02-23T00:49:17;10.16;;;10.05;;
2710;SDS011;20721;47.402;8.550;2023-02-23T00:50:17;11.07;;;11.07;;
2710;SDS011;20721;47.402;8.550;2023-02-23T00:51:16;10.18;;;10.13;;
2710;SDS011;20721;47.402;8.550;2023-02-23T00:52:16;10.30;;;10.19;;
2710;SDS011;20721;47.402;8.550;2023-02-23T00:53:16;9.32;;;9.21;;
2710;SDS011;20721;47.402;8.550;2023-02-23T00:54:16;10.76;;;10.66;;
2710;SDS011;20721;47.402;8.550;2023-02-23T00:55:17;10.25;;;10.15;;
2710;SDS011;20721;47.402;8.550;2023-02-23T00:56:17;10.10;;;9.99;;
2710;SDS011;20721;47.402;8.550;2023-02-23T00:57:16;9.17;;;9.11;;
2710;SDS011;20721;47.402;8.550;2023-02-23T00:58:18;9.69;;;9.53;;
2710;SDS011;20721;47.402;8.550;2023-02-23T00:59:16;10.04;;;9.90;;
2710;SDS011;20721;47.402;8.550;2023-02-23T01:00:26;10.25;;;10.03;;
2710;SDS011;20721;47.402;8.550;2023-02-23T01:01:17;10.94;;;10.73;;
2710;SDS011;20721;47.402;8.550;2023-02-23T01:02:16;9.90;;;9.90;;
2710;SDS011;20721;47.402;8.550;2023-02-23T01:03:16;10.57;;;10.51;;
2710;SDS011;20721;47.402;8.550;2023-02-23T01:04:16;10.17;;;10.16;;
2710;SDS011;20721;47.402;8.550;2023-02-23T01:05:16;10.10;;;10.06;;
2710;SDS011;20721;47.402;8.550;2023-02-23T01:06:17;10.85;;;10.79;;
2710;SDS011;20721;47.402;8.550;2023-02-23T01:07:16;10.67;;;10.57;;
2710;SDS011;20721;47.402;8.550;2023-02-23T01:08:19;10.22;;;10.09;;
2710;SDS011;20721;47.402;8.550;2023-02-23T01:09:18;11.18;;;11.09;;
2710;SDS011;20721;47.402;8.550;2023-02-23T01:10:26;10.83;;;10.73;;
2710;SDS011;20721;47.402;8.550;2023-02-23T01:11:19;10.23;;;10.12;;
2710;SDS011;20721;47.402;8.550;2023-02-23T01:12:16;9.93;;;9.75;;
2710;SDS011;20721;47.402;8.550;2023-02-23T01:13:16;9.88;;;9.69;;
2710;SDS011;20721;47.402;8.550;2023-02-23T01:14:16;10.56;;;10.38;;
2710;SDS011;20721;47.402;8.550;2023-02-23T01:15:18;9.70;;;9.70;;
2710;SDS011;20721;47.402;8.550;2023-02-23T01:16:18;10.66;;;10.61;;
2710;SDS011;20721;47.402;8.550;2023-02-23T01:17:16;11.06;;;10.88;;
2710;SDS011;20721;47.402;8.550;2023-02-23T01:18:16;11.45;;;11.24;;
2710;SDS011;20721;47.402;8.550;2023-02-23T01:19:16;10.80;;;10.65;;
2710;SDS011;20721;47.402;8.550;2023-02-23T01:20:26;12.03;;;11.86;;
2710;SDS011;20721;47.402;8.550;2023-02-23T01:21:27;10.45;;;10.29;;
2710;SDS011;20721;47.402;8.550;2023-02-23T01:22:16;11.08;;;10.91;;
2710;SDS011;20721;47.402;8.550;2023-02-23T01:23:17;12.86;;;12.57;;
2710;SDS011;20721;47.402;8.550;2023-02-23T01:24:16;11.04;;;11.04;;
2710;SDS011;20721;47.402;8.550;2023-02-23T01:25:17;11.04;;;11.02;;
2710;SDS011;20721;47.402;8.550;2023-02-23T01:26:29;11.64;;;11.55;;
2710;SDS011;20721;47.402;8.550;2023-02-23T01:27:16;11.81;;;11.80;;
2710;SDS011;20721;47.402;8.550;2023-02-23T01:28:16;11.51;;;11.42;;
2710;SDS011;20721;47.402;8.550;2023-02-23T01:29:19;10.87;;;10.78;;
2710;SDS011;20721;47.402;8.550;2023-02-23T01:30:16;11.01;;;11.01;;
2710;SDS011;20721;47.402;8.550;2023-02-23T01:31:18;11.38;;;11.35;;
2710;SDS011;20721;47.402;8.550;2023-02-23T01:35:17;10.56;;;10.56;;
2710;SDS011;20721;47.402;8.550;2023-02-23T01:36:16;10.80;;;10.80;;
2710;SDS011;20721;47.402;8.550;2023-02-23T01:37:17;10.02;;;10.02;;
2710;SDS011;20721;47.402;8.550;2023-02-23T01:38:16;10.07;;;10.07;;
2710;SDS011;20721;47.402;8.550;2023-02-23T01:39:18;9.90;;;9.80;;
2710;SDS011;20721;47.402;8.550;2023-02-23T01:40:29;9.51;;;9.43;;
2710;SDS011;20721;47.402;8.550;2023-02-23T01:41:18;10.59;;;10.48;;
2710;SDS011;20721;47.402;8.550;2023-02-23T01:42:20;9.99;;;9.95;;
2710;SDS011;20721;47.402;8.550;2023-02-23T01:43:20;9.71;;;9.71;;
2710;SDS011;20721;47.402;8.550;2023-02-23T01:47:16;10.38;;;10.29;;
2710;SDS011;20721;47.402;8.550;2023-02-23T01:48:19;9.39;;;9.38;;
2710;SDS011;20721;47.402;8.550;2023-02-23T01:49:19;10.51;;;10.36;;
2710;SDS011;20721;47.402;8.550;2023-02-23T01:50:16;9.93;;;9.79;;
2710;SDS011;20721;47.402;8.550;2023-02-23T01:51:24;11.05;;;11.04;;
2710;SDS011;20721;47.402;8.550;2023-02-23T01:52:18;10.31;;;10.31;;
2710;SDS011;20721;47.402;8.550;2023-02-23T01:53:16;10.55;;;10.51;;
2710;SDS011;20721;47.402;8.550;2023-02-23T01:54:21;10.09;;;10.04;;
2710;SDS011;20721;47.402;8.550;2023-02-23T01:55:22;10.97;;;10.86;;
2710;SDS011;20721;47.402;8.550;2023-02-23T01:56:25;10.69;;;10.69;;
2710;SDS011;20721;47.402;8.550;2023-02-23T01:57:21;11.74;;;11.74;;
2710;SDS011;20721;47.402;8.550;2023-02-23T01:58:18;12.19;;;12.09;;
2710;SDS011;20721;47.402;8.550;2023-02-23T01:59:16;12.05;;;11.91;;
2710;SDS011;20721;47.402;8.550;2023-02-23T02:01:16;11.31;;;11.27;;
2710;SDS011;20721;47.402;8.550;2023-02-23T02:02:17;12.33;;;12.21;;
2710;SDS011;20721;47.402;8.550;2023-02-23T02:03:30;12.96;;;12.77;;
2710;SDS011;20721;47.402;8.550;2023-02-23T02:04:17;12.48;;;12.28;;
2710;SDS011;20721;47.402;8.550;2023-02-23T02:05:22;11.81;;;11.62;;
2710;SDS011;20721;47.402;8.550;2023-02-23T02:08:17;12.48;;;12.43;;
2710;SDS011;20721;47.402;8.550;2023-02-23T02:09:19;12.10;;;12.02;;
2710;SDS011;20721;47.402;8.550;2023-02-23T02:10:26;12.14;;;12.04;;
2710;SDS011;20721;47.402;8.550;2023-02-23T02:12:21;12.07;;;12.07;;
2710;SDS011;20721;47.402;8.550;2023-02-23T02:13:18;12.03;;;11.96;;
2710;SDS011;20721;47.402;8.550;2023-02-23T02:14:23;12.09;;;12.09;;
2710;SDS011;20721;47.402;8.550;2023-02-23T02:21:46;12.11;;;12.03;;
2710;SDS011;20721;47.402;8.550;2023-02-23T02:22:34;13.06;;;12.88;;
2710;SDS011;20721;47.402;8.550;2023-02-23T02:24:36;14.66;;;14.65;;
2710;SDS011;20721;47.402;8.550;2023-02-23T02:26:24;15.63;;;15.56;;
2710;SDS011;20721;47.402;8.550;2023-02-23T02:28:29;14.41;;;14.35;;
2710;SDS011;20721;47.402;8.550;2023-02-23T02:29:38;14.54;;;14.44;;
2710;SDS011;20721;47.402;8.550;2023-02-23T02:32:36;15.70;;;15.65;;
2710;SDS011;20721;47.402;8.550;2023-02-23T02:36:45;15.49;;;15.41;;
2710;SDS011;20721;47.402;8.550;2023-02-23T02:39:30;16.24;;;16.12;;
2710;SDS011;20721;47.402;8.550;2023-02-23T02:42:28;17.28;;;17.21;;
2710;SDS011;20721;47.402;8.550;2023-02-23T02:44:27;16.96;;;16.84;;
2710;SDS011;20721;47.402;8.550;2023-02-23T02:45:21;18.27;;;18.13;;
2710;SDS011;20721;47.402;8.550;2023-02-23T02:46:25;16.43;;;16.24;;
2710;SDS011;20721;47.402;8.550;2023-02-23T02:47:25;17.18;;;17.03;;
2710;SDS011;20721;47.402;8.550;2023-02-23T02:49:25;17.20;;;17.19;;
2710;SDS011;20721;47.402;8.550;2023-02-23T02:51:47;18.26;;;17.98;;
2710;SDS011;20721;47.402;8.550;2023-02-23T02:52:40;19.01;;;18.65;;
2710;SDS011;20721;47.402;8.550;2023-02-23T02:53:21;18.69;;;18.44;;
2710;SDS011;20721;47.402;8.550;2023-02-23T02:54:29;18.68;;;18.56;;
2710;SDS011;20721;47.402;8.550;2023-02-23T02:55:29;18.52;;;18.31;;
2710;SDS011;20721;47.402;8.550;2023-02-23T02:56:17;18.16;;;18.03;;
2710;SDS011;20721;47.402;8.550;2023-02-23T02:57:19;18.79;;;18.72;;
2710;SDS011;20721;47.402;8.550;2023-02-23T02:58:17;17.79;;;17.57;;
2710;SDS011;20721;47.402;8.550;2023-02-23T02:59:27;19.37;;;18.90;;
2710;SDS011;20721;47.402;8.550;2023-02-23T03:00:29;18.78;;;18.37;;
2710;SDS011;20721;47.402;8.550;2023-02-23T03:01:28;18.46;;;18.25;;
2710;SDS011;20721;47.402;8.550;2023-02-23T03:02:28;18.78;;;18.54;;
2710;SDS011;20721;47.402;8.550;2023-02-23T03:03:38;19.20;;;18.92;;
2710;SDS011;20721;47.402;8.550;2023-02-23T03:04:28;18.25;;;18.09;;
2710;SDS011;20721;47.402;8.550;2023-02-23T03:05:29;18.08;;;17.81;;
2710;SDS011;20721;47.402;8.550;2023-02-23T03:06:28;18.99;;;18.70;;
2710;SDS011;20721;47.402;8.550;2023-02-23T03:07:52;17.86;;;17.63;;
2710;SDS011;20721;47.402;8.550;2023-02-23T03:08:33;18.14;;;17.91;;
2710;SDS011;20721;47.402;8.550;2023-02-23T03:09:35;16.04;;;15.79;;
2710;SDS011;20721;47.402;8.550;2023-02-23T03:11:30;14.17;;;14.13;;
2710;SDS011;20721;47.402;8.550;2023-02-23T03:13:04;14.03;;;14.00;;
2710;SDS011;20721;47.402;8.550;2023-02-23T03:14:31;15.15;;;15.12;;
2710;SDS011;20721;47.402;8.550;2023-02-23T03:18:34;15.84;;;15.84;;
2710;SDS011;20721;47.402;8.550;2023-02-23T03:19:35;15.01;;;15.01;;
2710;SDS011;20721;47.402;8.550;2023-02-23T03:23:35;15.52;;;15.44;;
2710;SDS011;20721;47.402;8.550;2023-02-23T03:24:37;15.60;;;15.48;;
2710;SDS011;20721;47.402;8.550;2023-02-23T03:25:40;14.85;;;14.78;;
2710;SDS011;20721;47.402;8.550;2023-02-23T03:26:35;15.13;;;15.08;;
2710;SDS011;20721;47.402;8.550;2023-02-23T03:28:30;14.86;;;14.73;;
2710;SDS011;20721;47.402;8.550;2023-02-23T03:30:47;16.19;;;16.09;;
2710;SDS011;20721;47.402;8.550;2023-02-23T03:32:36;14.16;;;14.09;;
2710;SDS011;20721;47.402;8.550;2023-02-23T03:34:32;15.53;;;15.33;;
2710;SDS011;20721;47.402;8.550;2023-02-23T03:36:30;14.01;;;13.91;;
2710;SDS011;20721;47.402;8.550;2023-02-23T03:37:30;13.86;;;13.80;;
2710;SDS011;20721;47.402;8.550;2023-02-23T03:38:34;13.60;;;13.60;;
2710;SDS011;20721;47.402;8.550;2023-02-23T03:39:37;15.01;;;15.01;;
2710;SDS011;20721;47.402;8.550;2023-02-23T03:40:31;15.76;;;15.73;;
2710;SDS011;20721;47.402;8.550;2023-02-23T03:41:29;15.93;;;15.93;;
2710;SDS011;20721;47.402;8.550;2023-02-23T03:42:29;20.32;;;20.18;;
2710;SDS011;20721;47.402;8.550;2023-02-23T03:44:31;21.14;;;20.84;;
2710;SDS011;20721;47.402;8.550;2023-02-23T03:46:27;20.03;;;19.74;;
2710;SDS011;20721;47.402;8.550;2023-02-23T03:47:28;19.48;;;19.43;;
2710;SDS011;20721;47.402;8.550;2023-02-23T03:48:28;20.08;;;19.83;;
2710;SDS011;20721;47.402;8.550;2023-02-23T03:49:28;18.94;;;18.94;;
2710;SDS011;20721;47.402;8.550;2023-02-23T03:51:27;18.36;;;18.35;;
2710;SDS011;20721;47.402;8.550;2023-02-23T03:52:31;19.10;;;18.94;;
2710;SDS011;20721;47.402;8.550;2023-02-23T03:53:32;20.13;;;19.91;;
2710;SDS011;20721;47.402;8.550;2023-02-23T03:54:35;18.17;;;18.13;;
2710;SDS011;20721;47.402;8.550;2023-02-23T03:58:31;17.59;;;17.23;;
2710;SDS011;20721;47.402;8.550;2023-02-23T03:59:30;14.97;;;14.87;;
2710;SDS011;20721;47.402;8.550;2023-02-23T04:00:31;13.94;;;13.79;;
2710;SDS011;20721;47.402;8.550;2023-02-23T04:01:28;14.33;;;14.17;;
2710;SDS011;20721;47.402;8.550;2023-02-23T04:02:28;14.07;;;13.99;;
2710;SDS011;20721;47.402;8.550;2023-02-23T04:03:27;17.81;;;17.59;;
2710;SDS011;20721;47.402;8.550;2023-02-23T04:04:27;17.00;;;16.99;;
2710;SDS011;20721;47.402;8.550;2023-02-23T04:05:27;19.26;;;19.25;;
2710;SDS011;20721;47.402;8.550;2023-02-23T04:06:27;17.95;;;17.91;;
2710;SDS011;20721;47.402;8.550;2023-02-23T04:07:28;17.58;;;17.34;;
2710;SDS011;20721;47.402;8.550;2023-02-23T04:08:29;19.63;;;19.33;;
2710;SDS011;20721;47.402;8.550;2023-02-23T04:09:26;17.86;;;17.53;;
2710;SDS011;20721;47.402;8.550;2023-02-23T04:10:26;19.66;;;19.38;;
2710;SDS011;20721;47.402;8.550;2023-02-23T04:11:34;17.65;;;17.46;;
2710;SDS011;20721;47.402;8.550;2023-02-23T04:12:34;20.72;;;20.47;;
2710;SDS011;20721;47.402;8.550;2023-02-23T04:13:27;18.84;;;18.65;;
2710;SDS011;20721;47.402;8.550;2023-02-23T04:14:25;20.86;;;20.50;;
2710;SDS011;20721;47.402;8.550;2023-02-23T04:15:29;19.56;;;19.07;;
2710;SDS011;20721;47.402;8.550;2023-02-23T04:16:17;19.04;;;18.97;;
2710;SDS011;20721;47.402;8.550;2023-02-23T04:17:18;18.57;;;18.41;;
2710;SDS011;20721;47.402;8.550;2023-02-23T04:18:22;18.61;;;18.50;;
2710;SDS011;20721;47.402;8.550;2023-02-23T04:19:16;20.32;;;19.99;;
2710;SDS011;20721;47.402;8.550;2023-02-23T04:20:18;19.61;;;19.60;;
2710;SDS011;20721;47.402;8.550;2023-02-23T04:21:16;19.45;;;19.27;;
2710;SDS011;20721;47.402;8.550;2023-02-23T04:22:16;20.28;;;20.18;;
2710;SDS011;20721;47.402;8.550;2023-02-23T04:23:16;18.82;;;18.69;;
2710;SDS011;20721;47.402;8.550;2023-02-23T04:24:18;17.72;;;17.66;;
2710;SDS011;20721;47.402;8.550;2023-02-23T04:25:18;17.34;;;17.25;;
2710;SDS011;20721;47.402;8.550;2023-02-23T04:26:16;17.30;;;17.16;;
2710;SDS011;20721;47.402;8.550;2023-02-23T04:27:16;17.09;;;16.70;;
2710;SDS011;20721;47.402;8.550;2023-02-23T04:28:17;15.47;;;15.29;;
2710;SDS011;20721;47.402;8.550;2023-02-23T04:29:16;15.39;;;15.12;;
2710;SDS011;20721;47.402;8.550;2023-02-23T04:30:17;16.32;;;16.06;;
2710;SDS011;20721;47.402;8.550;2023-02-23T04:31:16;13.83;;;13.63;;
2710;SDS011;20721;47.402;8.550;2023-02-23T04:32:21;14.61;;;14.43;;
2710;SDS011;20721;47.402;8.550;2023-02-23T04:33:17;14.12;;;13.87;;
2710;SDS011;20721;47.402;8.550;2023-02-23T04:34:16;13.63;;;13.62;;
2710;SDS011;20721;47.402;8.550;2023-02-23T04:35:17;14.12;;;13.96;;
2710;SDS011;20721;47.402;8.550;2023-02-23T04:36:16;13.57;;;13.53;;
2710;SDS011;20721;47.402;8.550;2023-02-23T04:37:16;14.19;;;14.09;;
2710;SDS011;20721;47.402;8.550;2023-02-23T04:38:16;14.18;;;14.01;;
2710;SDS011;20721;47.402;8.550;2023-02-23T04:39:16;13.49;;;13.31;;
2710;SDS011;20721;47.402;8.550;2023-02-23T04:40:17;14.33;;;14.23;;
2710;SDS011;20721;47.402;8.550;2023-02-23T04:41:16;14.10;;;13.91;;
2710;SDS011;20721;47.402;8.550;2023-02-23T04:42:17;13.78;;;13.67;;
2710;SDS011;20721;47.402;8.550;2023-02-23T04:43:16;14.78;;;14.54;;
2710;SDS011;20721;47.402;8.550;2023-02-23T04:44:16;14.86;;;14.63;;
2710;SDS011;20721;47.402;8.550;2023-02-23T04:45:17;12.79;;;12.79;;
2710;SDS011;20721;47.402;8.550;2023-02-23T04:46:17;14.64;;;14.64;;
2710;SDS011;20721;47.402;8.550;2023-02-23T04:47:16;13.79;;;13.77;;
2710;SDS011;20721;47.402;8.550;2023-02-23T04:49:17;14.04;;;13.90;;
2710;SDS011;20721;47.402;8.550;2023-02-23T04:50:18;15.34;;;15.05;;
2710;SDS011;20721;47.402;8.550;2023-02-23T04:51:16;14.81;;;14.68;;
2710;SDS011;20721;47.402;8.550;2023-02-23T04:53:16;14.43;;;14.43;;
2710;SDS011;20721;47.402;8.550;2023-02-23T04:54:16;16.40;;;16.28;;
2710;SDS011;20721;47.402;8.550;2023-02-23T04:55:19;16.15;;;16.15;;
2710;SDS011;20721;47.402;8.550;2023-02-23T04:56:17;15.39;;;15.31;;
2710;SDS011;20721;47.402;8.550;2023-02-23T04:57:16;15.35;;;15.34;;
2710;SDS011;20721;47.402;8.550;2023-02-23T04:58:18;16.44;;;16.42;;
2710;SDS011;20721;47.402;8.550;2023-02-23T04:59:16;15.54;;;15.28;;
2710;SDS011;20721;47.402;8.550;2023-02-23T05:00:17;15.96;;;15.79;;
2710;SDS011;20721;47.402;8.550;2023-02-23T05:01:17;15.39;;;15.29;;
2710;SDS011;20721;47.402;8.550;2023-02-23T05:02:17;15.61;;;15.34;;
2710;SDS011;20721;47.402;8.550;2023-02-23T05:03:16;15.80;;;15.48;;
2710;SDS011;20721;47.402;8.550;2023-02-23T05:04:16;14.46;;;14.41;;
2710;SDS011;20721;47.402;8.550;2023-02-23T05:05:18;15.30;;;15.28;;
2710;SDS011;20721;47.402;8.550;2023-02-23T05:06:17;15.27;;;15.08;;
2710;SDS011;20721;47.402;8.550;2023-02-23T05:07:16;15.78;;;15.51;;
2710;SDS011;20721;47.402;8.550;2023-02-23T05:08:16;15.17;;;14.74;;
2710;SDS011;20721;47.402;8.550;2023-02-23T05:09:16;14.98;;;14.75;;
2710;SDS011;20721;47.402;8.550;2023-02-23T05:10:17;15.45;;;15.26;;
2710;SDS011;20721;47.402;8.550;2023-02-23T05:12:17;15.31;;;15.08;;
2710;SDS011;20721;47.402;8.550;2023-02-23T05:14:17;14.70;;;14.66;;
2710;SDS011;20721;47.402;8.550;2023-02-23T05:15:17;14.97;;;14.92;;
2710;SDS011;20721;47.402;8.550;2023-02-23T05:16:17;14.24;;;14.19;;
2710;SDS011;20721;47.402;8.550;2023-02-23T05:18:17;14.77;;;14.67;;
2710;SDS011;20721;47.402;8.550;2023-02-23T05:19:17;15.61;;;15.28;;
2710;SDS011;20721;47.402;8.550;2023-02-23T05:20:18;15.71;;;15.48;;
2710;SDS011;20721;47.402;8.550;2023-02-23T05:21:17;14.83;;;14.61;;
2710;SDS011;20721;47.402;8.550;2023-02-23T05:22:16;14.73;;;14.55;;
2710;SDS011;20721;47.402;8.550;2023-02-23T05:23:17;14.70;;;14.54;;
2710;SDS011;20721;47.402;8.550;2023-02-23T05:24:17;15.24;;;15.13;;
2710;SDS011;20721;47.402;8.550;2023-02-23T05:26:18;15.39;;;15.32;;
2710;SDS011;20721;47.402;8.550;2023-02-23T05:27:17;15.34;;;15.24;;
2710;SDS011;20721;47.402;8.550;2023-02-23T05:28:16;15.51;;;15.36;;
2710;SDS011;20721;47.402;8.550;2023-02-23T05:29:16;15.88;;;15.73;;
2710;SDS011;20721;47.402;8.550;2023-02-23T05:30:17;15.44;;;15.26;;
2710;SDS011;20721;47.402;8.550;2023-02-23T05:31:17;16.24;;;16.01;;
2710;SDS011;20721;47.402;8.550;2023-02-23T05:32:17;15.66;;;15.40;;
2710;SDS011;20721;47.402;8.550;2023-02-23T05:33:16;16.42;;;16.20;;
2710;SDS011;20721;47.402;8.550;2023-02-23T05:34:16;16.18;;;16.01;;
2710;SDS011;20721;47.402;8.550;2023-02-23T05:35:18;16.25;;;16.23;;
2710;SDS011;20721;47.402;8.550;2023-02-23T05:36:19;16.57;;;16.53;;
2710;SDS011;20721;47.402;8.550;2023-02-23T05:38:16;15.99;;;15.79;;
2710;SDS011;20721;47.402;8.550;2023-02-23T05:39:16;17.40;;;17.21;;
2710;SDS011;20721;47.402;8.550;2023-02-23T05:40:17;17.30;;;17.06;;
2710;SDS011;20721;47.402;8.550;2023-02-23T05:41:18;17.06;;;16.66;;
2710;SDS011;20721;47.402;8.550;2023-02-23T05:42:17;16.96;;;16.74;;
2710;SDS011;20721;47.402;8.550;2023-02-23T05:43:17;17.84;;;17.50;;
2710;SDS011;20721;47.402;8.550;2023-02-23T05:44:16;17.47;;;17.18;;
2710;SDS011;20721;47.402;8.550;2023-02-23T05:45:17;17.17;;;16.97;;
2710;SDS011;20721;47.402;8.550;2023-02-23T05:46:20;18.19;;;17.99;;
2710;SDS011;20721;47.402;8.550;2023-02-23T05:47:17;18.23;;;17.99;;
2710;SDS011;20721;47.402;8.550;2023-02-23T05:48:17;17.14;;;17.09;;
2710;SDS011;20721;47.402;8.550;2023-02-23T05:49:17;19.65;;;19.37;;
2710;SDS011;20721;47.402;8.550;2023-02-23T05:50:18;18.09;;;17.90;;
2710;SDS011;20721;47.402;8.550;2023-02-23T05:51:18;17.70;;;17.50;;
2710;SDS011;20721;47.402;8.550;2023-02-23T05:52:17;17.06;;;16.89;;
2710;SDS011;20721;47.402;8.550;2023-02-23T05:53:17;19.67;;;19.23;;
2710;SDS011;20721;47.402;8.550;2023-02-23T05:54:16;17.93;;;17.57;;
2710;SDS011;20721;47.402;8.550;2023-02-23T05:55:18;18.57;;;18.34;;
2710;SDS011;20721;47.402;8.550;2023-02-23T05:56:20;19.13;;;18.94;;
2710;SDS011;20721;47.402;8.550;2023-02-23T05:57:17;18.98;;;18.72;;
2710;SDS011;20721;47.402;8.550;2023-02-23T05:58:16;19.23;;;18.64;;
2710;SDS011;20721;47.402;8.550;2023-02-23T05:59:17;18.54;;;17.93;;
2710;SDS011;20721;47.402;8.550;2023-02-23T06:00:17;18.44;;;18.12;;
2710;SDS011;20721;47.402;8.550;2023-02-23T06:01:17;17.77;;;17.43;;
2710;SDS011;20721;47.402;8.550;2023-02-23T06:02:17;17.50;;;17.26;;
2710;SDS011;20721;47.402;8.550;2023-02-23T06:03:17;16.44;;;16.29;;
2710;SDS011;20721;47.402;8.550;2023-02-23T06:04:17;17.72;;;17.72;;
2710;SDS011;20721;47.402;8.550;2023-02-23T06:05:18;17.80;;;17.73;;
2710;SDS011;20721;47.402;8.550;2023-02-23T06:06:17;19.23;;;19.03;;
2710;SDS011;20721;47.402;8.550;2023-02-23T06:07:16;19.20;;;18.98;;
2710;SDS011;20721;47.402;8.550;2023-02-23T06:08:17;19.12;;;18.91;;
2710;SDS011;20721;47.402;8.550;2023-02-23T06:09:17;18.97;;;18.63;;
2710;SDS011;20721;47.402;8.550;2023-02-23T06:10:17;18.27;;;18.21;;
2710;SDS011;20721;47.402;8.550;2023-02-23T06:11:17;19.41;;;19.06;;
2710;SDS011;20721;47.402;8.550;2023-02-23T06:12:18;19.35;;;19.32;;
2710;SDS011;20721;47.402;8.550;2023-02-23T06:13:16;19.42;;;19.31;;
2710;SDS011;20721;47.402;8.550;2023-02-23T06:14:17;18.11;;;17.89;;
2710;SDS011;20721;47.402;8.550;2023-02-23T06:15:17;18.79;;;18.46;;
2710;SDS011;20721;47.402;8.550;2023-02-23T06:16:17;18.03;;;18.02;;
2710;SDS011;20721;47.402;8.550;2023-02-23T06:17:17;19.30;;;18.94;;
2710;SDS011;20721;47.402;8.550;2023-02-23T06:18:18;17.55;;;16.96;;
2710;SDS011;20721;47.402;8.550;2023-02-23T06:19:17;17.96;;;17.50;;
2710;SDS011;20721;47.402;8.550;2023-02-23T06:20:17;16.32;;;16.22;;
2710;SDS011;20721;47.402;8.550;2023-02-23T06:21:17;17.30;;;16.98;;
2710;SDS011;20721;47.402;8.550;2023-02-23T06:22:17;16.75;;;16.67;;
2710;SDS011;20721;47.402;8.550;2023-02-23T06:23:17;18.75;;;18.49;;
2710;SDS011;20721;47.402;8.550;2023-02-23T06:25:21;16.34;;;16.26;;
2710;SDS011;20721;47.402;8.550;2023-02-23T06:26:17;16.53;;;16.48;;
2710;SDS011;20721;47.402;8.550;2023-02-23T06:27:17;16.72;;;16.32;;
2710;SDS011;20721;47.402;8.550;2023-02-23T06:28:18;18.05;;;17.82;;
2710;SDS011;20721;47.402;8.550;2023-02-23T06:29:17;16.54;;;16.39;;
2710;SDS011;20721;47.402;8.550;2023-02-23T06:30:17;17.21;;;17.03;;
2710;SDS011;20721;47.402;8.550;2023-02-23T06:31:17;17.59;;;17.44;;
2710;SDS011;20721;47.402;8.550;2023-02-23T06:32:17;17.18;;;17.18;;
2710;SDS011;20721;47.402;8.550;2023-02-23T06:33:17;16.90;;;16.79;;
2710;SDS011;20721;47.402;8.550;2023-02-23T06:34:17;17.56;;;17.56;;
2710;SDS011;20721;47.402;8.550;2023-02-23T06:35:17;16.06;;;16.02;;
2710;SDS011;20721;47.402;8.550;2023-02-23T06:36:17;16.54;;;16.54;;
2710;SDS011;20721;47.402;8.550;2023-02-23T06:37:20;18.32;;;18.31;;
2710;SDS011;20721;47.402;8.550;2023-02-23T06:38:17;17.60;;;17.40;;
2710;SDS011;20721;47.402;8.550;2023-02-23T06:39:19;17.36;;;17.02;;
2710;SDS011;20721;47.402;8.550;2023-02-23T06:40:17;16.56;;;16.40;;
2710;SDS011;20721;47.402;8.550;2023-02-23T06:41:18;16.28;;;16.26;;
2710;SDS011;20721;47.402;8.550;2023-02-23T06:42:17;15.55;;;15.52;;
2710;SDS011;20721;47.402;8.550;2023-02-23T06:43:17;16.28;;;16.28;;
2710;SDS011;20721;47.402;8.550;2023-02-23T06:44:17;17.73;;;17.67;;
2710;SDS011;20721;47.402;8.550;2023-02-23T06:45:17;17.26;;;16.93;;
2710;SDS011;20721;47.402;8.550;2023-02-23T06:46:17;16.38;;;16.03;;
2710;SDS011;20721;47.402;8.550;2023-02-23T06:48:17;17.62;;;17.43;;
2710;SDS011;20721;47.402;8.550;2023-02-23T06:50:17;17.23;;;17.20;;
2710;SDS011;20721;47.402;8.550;2023-02-23T06:51:17;17.30;;;17.10;;
2710;SDS011;20721;47.402;8.550;2023-02-23T06:52:18;16.83;;;16.82;;
2710;SDS011;20721;47.402;8.550;2023-02-23T06:53:17;16.47;;;16.47;;
2710;SDS011;20721;47.402;8.550;2023-02-23T06:54:17;16.81;;;16.67;;
2710;SDS011;20721;47.402;8.550;2023-02-23T06:55:17;16.52;;;16.35;;
2710;SDS011;20721;47.402;8.550;2023-02-23T06:56:17;16.12;;;15.93;;
2710;SDS011;20721;47.402;8.550;2023-02-23T06:57:17;16.29;;;16.28;;
2710;SDS011;20721;47.402;8.550;2023-02-23T06:58:17;15.73;;;15.64;;
2710;SDS011;20721;47.402;8.550;2023-02-23T06:59:17;16.14;;;16.08;;